Time;durP1;ratioP1;P1;durP2;ratioP2;P2;SDS_P1;SDS_P2;PMS_P1;PMS_P2;Temp;Humidity;BMP_temperature;BMP_pressure;BME280_temperature;BME280_humidity;BME280_pressure;Samples;Min_cycle;Max_cycle;Signal;HPM_P1;HPM_P2
2020/12/13 00:02:06;;;;;;;;;27.33;22.67;;;;;11.00;69.90;100128.81;5092159;28;8829;-81
2020/12/13 00:04:32;;;;;;;;;30.67;27.00;;;;;11.11;69.58;100157.69;5092749;28;8828;-82
2020/12/13 00:06:59;;;;;;;;;25.00;21.67;;;;;11.12;69.81;100159.44;5092149;28;8844;-80
2020/12/13 00:09:25;;;;;;;;;28.33;22.67;;;;;11.09;69.75;100160.31;5092002;28;8832;-79
2020/12/13 00:11:51;;;;;;;;;25.00;22.00;;;;;11.06;70.42;100159.41;5092232;28;8847;-81
2020/12/13 00:14:18;;;;;;;;;24.00;22.33;;;;;11.05;69.90;100153.28;5092049;28;8905;-82
2020/12/13 00:16:45;;;;;;;;;27.33;18.33;;;;;11.14;69.13;100170.78;5091872;28;8921;-81
2020/12/13 00:19:11;;;;;;;;;32.67;25.67;;;;;11.11;69.99;100168.16;5091648;28;8872;-81
2020/12/13 00:21:37;;;;;;;;;30.00;26.00;;;;;10.98;70.36;100166.34;5091801;28;8828;-79
2020/12/13 00:24:03;;;;;;;;;27.33;22.67;;;;;11.00;70.64;100169.88;5091474;28;8852;-80
2020/12/13 00:26:29;;;;;;;;;24.67;22.67;;;;;11.01;70.22;100172.47;5092164;28;8831;-79
2020/12/13 00:28:56;;;;;;;;;25.00;22.00;;;;;10.97;69.93;100169.84;5091449;28;8855;-78
2020/12/13 00:31:23;;;;;;;;;30.67;25.00;;;;;11.02;70.12;100183.84;5091166;28;9316;-81
2020/12/13 00:33:49;;;;;;;;;24.33;22.00;;;;;10.94;70.42;100175.94;5091634;28;8836;-80
2020/12/13 00:36:18;;;;;;;;;26.33;26.33;;;;;10.94;70.51;100185.53;5091315;28;8852;-81
2020/12/13 00:38:44;;;;;;;;;25.00;22.67;;;;;10.88;70.28;100175.00;5091367;28;9014;-81
2020/12/13 00:41:10;;;;;;;;;32.33;28.00;;;;;10.99;70.47;100183.81;5091050;28;8879;-81
2020/12/13 00:43:37;;;;;;;;;29.67;26.00;;;;;11.01;70.47;100187.34;5091702;28;8824;-80
2020/12/13 00:46:03;;;;;;;;;27.00;24.33;;;;;10.80;71.23;100181.97;5091314;28;8852;-81
2020/12/13 00:48:30;;;;;;;;;22.33;21.00;;;;;10.56;71.37;100171.31;5091436;28;8832;-82
2020/12/13 00:50:57;;;;;;;;;24.33;23.00;;;;;10.70;71.45;100180.16;5091438;28;8825;-82
2020/12/13 00:53:23;;;;;;;;;25.00;24.00;;;;;10.47;72.42;100186.97;5091348;28;8878;-81
2020/12/13 00:55:49;;;;;;;;;26.00;25.67;;;;;10.63;71.57;100183.59;5091285;28;8848;-82
2020/12/13 00:58:15;;;;;;;;;29.00;26.00;;;;;10.80;71.22;100193.28;5091189;28;8934;-80
2020/12/13 01:00:42;;;;;;;;;26.00;25.00;;;;;10.78;70.89;100200.28;5091537;28;8828;-81
2020/12/13 01:03:08;;;;;;;;;25.67;25.00;;;;;10.70;71.07;100195.88;5087247;28;8820;-82
2020/12/13 01:05:35;;;;;;;;;24.00;22.00;;;;;10.44;72.20;100207.88;5090781;28;8844;-80
2020/12/13 01:08:01;;;;;;;;;27.67;24.00;;;;;10.70;70.97;100201.09;5091514;28;8836;-81
2020/12/13 01:10:28;;;;;;;;;23.33;20.33;;;;;10.50;71.92;100207.91;5091626;28;8840;-81
2020/12/13 01:12:54;;;;;;;;;29.00;24.33;;;;;10.56;71.68;100218.44;5091107;28;8947;-82
2020/12/13 01:15:20;;;;;;;;;25.33;23.33;;;;;10.65;71.68;100218.50;5091179;28;8824;-82
2020/12/13 01:17:47;;;;;;;;;25.33;24.33;;;;;10.68;71.27;100223.78;5091328;28;8836;-82
2020/12/13 01:20:14;;;;;;;;;24.00;22.00;;;;;10.56;71.81;100223.66;5090419;28;8832;-82
2020/12/13 01:22:42;;;;;;;;;20.00;19.33;;;;;10.48;71.89;100225.38;5091139;28;8829;-82
2020/12/13 01:25:09;;;;;;;;;29.67;29.00;;;;;10.46;72.09;100211.41;5086838;28;8932;-83
2020/12/13 01:27:36;;;;;;;;;29.00;24.00;;;;;10.62;72.00;100223.75;5091038;28;8880;-81
2020/12/13 01:30:04;;;;;;;;;24.33;24.33;;;;;10.59;72.23;100234.19;5090727;28;8819;-81
2020/12/13 01:32:35;;;;;;;;;29.33;26.00;;;;;10.48;72.51;100222.75;5090637;28;8844;-80
2020/12/13 01:35:01;;;;;;;;;25.67;24.33;;;;;10.61;72.50;100227.19;5090652;28;8840;-80
2020/12/13 01:37:27;;;;;;;;;28.33;27.67;;;;;10.59;72.30;100240.31;5090819;28;8901;-80
2020/12/13 01:39:54;;;;;;;;;24.00;21.00;;;;;10.64;72.53;100242.94;5091021;28;8840;-81
2020/12/13 01:42:20;;;;;;;;;30.00;26.67;;;;;9.93;74.12;100238.78;5091568;28;8852;-82
2020/12/13 01:44:47;;;;;;;;;30.67;22.67;;;;;9.97;73.99;100251.00;5095016;28;8828;-80
2020/12/13 01:47:13;;;;;;;;;28.67;24.67;;;;;10.35;72.67;100249.69;5094302;28;8856;-81
2020/12/13 01:49:42;;;;;;;;;29.33;24.00;;;;;10.14;73.00;100233.78;5094866;28;8824;-82
2020/12/13 01:55:03;;;;;;;;;27.00;24.33;;;;;10.26;72.45;100233.91;5093163;28;9571;-82
2020/12/13 01:57:34;;;;;;;;;25.33;20.33;;;;;10.41;72.43;100242.75;5094514;28;8829;-80
2020/12/13 02:00:07;;;;;;;;;27.00;24.00;;;;;10.41;72.11;100234.03;5094563;28;8840;-81
2020/12/13 02:02:38;;;;;;;;;23.00;20.33;;;;;10.53;71.51;100234.13;5094703;28;8847;-79
2020/12/13 02:05:05;;;;;;;;;29.33;24.33;;;;;10.30;72.02;100238.31;5094066;28;8824;-80
2020/12/13 02:07:31;;;;;;;;;10.67;6.33;;;;;10.18;72.45;100246.00;5094422;28;8832;-78
2020/12/13 02:09:59;;;;;;;;;24.00;23.00;;;;;10.15;72.96;100249.47;5094411;28;8960;-82
2020/12/13 02:12:26;;;;;;;;;31.67;24.00;;;;;10.21;72.22;100236.50;5094052;28;8832;-80
2020/12/13 02:14:52;;;;;;;;;22.33;20.67;;;;;10.23;72.51;100239.09;5094355;28;8836;-81
2020/12/13 02:17:20;;;;;;;;;22.67;20.67;;;;;10.30;71.88;100235.69;5094187;28;8932;-79
2020/12/13 02:19:47;;;;;;;;;25.00;20.00;;;;;10.11;72.25;100244.22;5093950;28;8840;-79
2020/12/13 02:22:14;;;;;;;;;25.00;23.33;;;;;10.19;72.56;100247.78;5093406;28;8848;-77
2020/12/13 02:24:41;;;;;;;;;28.00;23.33;;;;;10.15;72.18;100235.53;5094105;28;8933;-79
2020/12/13 02:27:08;;;;;;;;;25.67;24.67;;;;;10.15;72.54;100251.25;5089509;28;8840;-79
2020/12/13 02:29:35;;;;;;;;;23.67;19.00;;;;;10.14;72.32;100246.88;5093775;28;8824;-79
2020/12/13 02:32:01;;;;;;;;;27.00;24.00;;;;;10.13;72.10;100247.72;5093772;28;9672;-79
2020/12/13 02:34:27;;;;;;;;;19.33;18.00;;;;;9.93;72.67;100249.22;5093734;28;8848;-79
2020/12/13 02:36:54;;;;;;;;;24.00;20.33;;;;;9.62;73.42;100239.28;5093448;28;8841;-79
2020/12/13 02:39:21;;;;;;;;;24.67;21.67;;;;;10.03;72.07;100248.47;5093748;28;8844;-79
2020/12/13 02:42:02;;;;;;;;;29.67;19.33;;;;;10.21;71.16;100240.81;5093224;28;8835;-79
2020/12/13 02:44:29;;;;;;;;;20.67;20.67;;;;;10.21;71.38;100251.28;5091769;28;8836;-78
2020/12/13 02:46:55;;;;;;;;;22.67;20.67;;;;;10.13;71.25;100252.94;5093461;28;9583;-79
2020/12/13 02:49:21;;;;;;;;;23.67;23.67;;;;;10.00;72.15;100254.56;5093185;28;8851;-79
2020/12/13 02:51:48;;;;;;;;;24.00;23.00;;;;;10.08;72.00;100270.38;5093404;28;8909;-79
2020/12/13 02:54:14;;;;;;;;;22.33;22.33;;;;;10.09;72.14;100277.34;5092624;28;8860;-80
2020/12/13 02:56:42;;;;;;;;;25.67;20.00;;;;;9.85;72.92;100274.41;5093270;28;8870;-79
2020/12/13 02:59:09;;;;;;;;;24.33;21.67;;;;;9.99;72.68;100273.69;5089388;28;8836;-79
2020/12/13 03:01:35;;;;;;;;;23.00;21.67;;;;;9.95;72.30;100263.19;5093213;28;8844;-81
2020/12/13 03:04:02;;;;;;;;;21.33;18.00;;;;;9.87;71.86;100254.41;5093249;28;8913;-80
2020/12/13 03:06:29;;;;;;;;;22.33;22.33;;;;;9.91;72.54;100271.84;5092985;28;8848;-79
2020/12/13 03:08:55;;;;;;;;;25.00;23.67;;;;;9.97;72.31;100267.59;5093427;28;8832;-80
2020/12/13 03:11:22;;;;;;;;;24.00;22.00;;;;;9.86;72.22;100268.31;5092963;28;8982;-79
2020/12/13 03:13:51;;;;;;;;;28.00;23.67;;;;;9.66;72.36;100270.69;5093303;28;8917;-81
2020/12/13 03:16:18;;;;;;;;;19.67;17.67;;;;;9.38;73.79;100270.34;5092863;28;8840;-80
2020/12/13 03:18:46;;;;;;;;;28.67;27.00;;;;;9.48;73.92;100272.19;5093201;28;8828;-81
2020/12/13 03:21:12;;;;;;;;;24.33;21.00;;;;;9.64;72.93;100276.75;5092432;28;8828;-80
2020/12/13 03:23:38;;;;;;;;;26.67;23.00;;;;;9.55;72.93;100276.66;5093074;28;8840;-79
2020/12/13 03:26:05;;;;;;;;;25.33;19.67;;;;;9.67;72.48;100272.47;5092864;28;8909;-81
2020/12/13 03:28:31;;;;;;;;;27.67;23.00;;;;;9.70;72.21;100276.84;5092830;28;8856;-81
2020/12/13 03:30:58;;;;;;;;;23.00;21.33;;;;;9.61;72.12;100271.53;5092838;28;8836;-81
2020/12/13 03:33:25;;;;;;;;;24.67;23.67;;;;;9.69;72.30;100275.09;5092449;28;8852;-82
2020/12/13 03:35:51;;;;;;;;;28.00;23.67;;;;;9.64;72.16;100282.00;5092961;28;8840;-82
2020/12/13 03:38:17;;;;;;;;;25.00;21.67;;;;;9.82;72.04;100293.56;5092589;28;8844;-79
2020/12/13 03:40:44;;;;;;;;;23.00;23.00;;;;;9.73;71.87;100289.97;5092373;28;8860;-79
2020/12/13 03:43:10;;;;;;;;;22.33;20.67;;;;;9.70;72.03;100297.75;5092172;28;8832;-78
2020/12/13 03:45:36;;;;;;;;;27.00;25.33;;;;;9.55;72.44;100302.81;5088551;28;9003;-81
2020/12/13 03:48:04;;;;;;;;;21.00;19.00;;;;;9.66;72.11;100311.66;5092082;28;8847;-80
2020/12/13 03:50:38;;;;;;;;;24.33;22.33;;;;;9.57;71.97;100306.31;5092168;28;8836;-81
2020/12/13 03:53:06;;;;;;;;;22.33;19.00;;;;;9.60;72.53;100322.03;5092026;28;8972;-79
2020/12/13 03:55:32;;;;;;;;;18.00;18.00;;;;;9.59;72.33;100309.81;5092201;28;9579;-78
2020/12/13 03:57:59;;;;;;;;;25.67;25.67;;;;;9.65;71.73;100309.91;5092197;28;8920;-79
2020/12/13 04:00:27;;;;;;;;;20.67;20.00;;;;;9.53;72.35;100328.91;5092118;28;8860;-79
2020/12/13 04:02:57;;;;;;;;;23.33;18.33;;;;;9.55;72.59;100328.94;5092047;28;8913;-80
2020/12/13 04:05:25;;;;;;;;;22.67;20.00;;;;;9.67;71.99;100335.22;5091179;28;8850;-79
2020/12/13 04:07:51;;;;;;;;;25.67;23.00;;;;;9.30;72.42;100337.28;5092089;28;8854;-82
2020/12/13 04:10:19;;;;;;;;;20.33;18.00;;;;;8.86;74.08;100335.72;5097752;28;8840;-82
2020/12/13 04:12:45;;;;;;;;;20.33;18.67;;;;;8.96;73.62;100345.47;5102147;28;8840;-81
2020/12/13 04:15:12;;;;;;;;;18.33;18.00;;;;;9.05;73.13;100341.28;5101256;28;8832;-83
2020/12/13 04:17:38;;;;;;;;;21.67;19.33;;;;;8.79;74.37;100333.88;5102386;28;8836;-82
2020/12/13 04:20:05;;;;;;;;;19.67;17.33;;;;;8.69;75.14;100339.81;5095534;28;8824;-81
2020/12/13 04:22:33;;;;;;;;;21.33;19.33;;;;;8.93;74.56;100334.97;5092788;28;8844;-82
2020/12/13 04:24:59;;;;;;;;;26.00;21.00;;;;;9.04;74.46;100349.06;5092893;28;8812;-80
2020/12/13 04:27:25;;;;;;;;;24.00;20.00;;;;;8.92;74.32;100349.78;5092966;28;8832;-81
2020/12/13 04:29:52;;;;;;;;;26.33;23.33;;;;;8.74;74.89;100353.81;5092046;28;8840;-82
2020/12/13 04:32:19;;;;;;;;;26.33;23.00;;;;;8.61;75.58;100352.72;5091813;28;8913;-82
2020/12/13 04:34:45;;;;;;;;;27.00;20.67;;;;;8.52;75.88;100330.81;5091856;28;8844;-83
2020/12/13 04:37:11;;;;;;;;;27.33;23.33;;;;;8.74;74.87;100348.59;5091461;28;8844;-83
2020/12/13 04:39:38;;;;;;;;;22.67;21.67;;;;;8.54;75.17;100339.53;5091634;28;8972;-81
2020/12/13 04:42:05;;;;;;;;;21.00;19.00;;;;;8.39;75.30;100347.06;5086983;28;8858;-82
2020/12/13 04:44:31;;;;;;;;;25.00;19.67;;;;;8.51;75.52;100334.25;5092747;28;8844;-81
2020/12/13 04:47:03;;;;;;;;;21.00;18.33;;;;;8.51;74.80;100355.13;5094267;28;8836;-81
2020/12/13 04:49:31;;;;;;;;;19.67;19.00;;;;;8.53;74.09;100353.44;5093764;28;9677;-82
2020/12/13 04:51:59;;;;;;;;;21.33;18.67;;;;;8.18;75.79;100370.09;5094524;28;8824;-82
2020/12/13 04:54:28;;;;;;;;;22.00;21.00;;;;;8.12;75.92;100364.78;5093655;28;8844;-80
2020/12/13 04:56:58;;;;;;;;;17.33;16.67;;;;;8.13;75.94;100356.09;5093171;28;8908;-79
2020/12/13 04:59:25;;;;;;;;;21.33;19.33;;;;;8.05;76.95;100357.69;5092055;28;8851;-78
2020/12/13 05:01:53;;;;;;;;;17.00;16.67;;;;;8.32;75.60;100363.47;5091360;28;8950;-79
2020/12/13 05:04:19;;;;;;;;;18.67;15.00;;;;;8.70;74.16;100367.66;5091051;28;8860;-79
2020/12/13 05:06:48;;;;;;;;;25.67;21.67;;;;;8.23;75.45;100378.94;5091444;28;8836;-78
2020/12/13 05:09:15;;;;;;;;;18.33;17.00;;;;;8.56;74.50;100374.34;5090851;28;8872;-78
2020/12/13 05:11:43;;;;;;;;;19.00;17.67;;;;;8.66;73.69;100386.72;5090878;28;8909;-77
2020/12/13 05:14:10;;;;;;;;;22.33;21.67;;;;;8.51;73.79;100387.31;5091075;28;8824;-81
2020/12/13 05:16:36;;;;;;;;;19.00;14.00;;;;;8.58;73.64;100351.78;5087366;28;8832;-79
2020/12/13 05:19:05;;;;;;;;;19.00;17.67;;;;;8.62;73.30;100358.78;5090636;28;8859;-79
2020/12/13 05:21:31;;;;;;;;;16.67;16.67;;;;;8.77;73.07;100385.16;5091020;28;8893;-77
2020/12/13 05:23:58;;;;;;;;;18.33;18.33;;;;;8.91;72.46;100381.06;5091131;28;8836;-76
2020/12/13 05:26:24;;;;;;;;;23.67;21.00;;;;;8.76;73.20;100393.84;5090711;28;8852;-77
2020/12/13 05:28:51;;;;;;;;;24.67;18.00;;;;;8.67;73.38;100388.47;5090752;28;8844;-79
2020/12/13 05:31:21;;;;;;;;;19.67;18.00;;;;;8.75;73.31;100386.88;5090629;28;8844;-81
2020/12/13 05:33:50;;;;;;;;;19.33;15.00;;;;;8.53;73.75;100385.59;5090877;28;8836;-82
2020/12/13 05:36:18;;;;;;;;;18.00;16.67;;;;;8.71;73.51;100398.13;5090345;28;8848;-80
2020/12/13 05:38:45;;;;;;;;;21.00;17.00;;;;;8.63;73.94;100402.34;5090654;28;8937;-81
2020/12/13 05:41:14;;;;;;;;;17.00;16.67;;;;;8.78;73.44;100402.59;5090280;28;8841;-80
2020/12/13 05:43:44;;;;;;;;;17.00;17.00;;;;;8.46;73.12;100377.63;5090739;28;8917;-80
2020/12/13 05:49:20;;;;;;;;;13.33;11.33;;;;;8.54;73.28;100389.09;5090525;28;8828;-80
2020/12/13 05:51:46;;;;;;;;;21.67;20.00;;;;;7.70;74.25;100400.38;5088430;28;9576;-82
2020/12/13 05:54:20;;;;;;;;;17.67;17.67;;;;;7.82;75.49;100416.31;5090238;28;8894;-80
2020/12/13 05:56:51;;;;;;;;;21.00;21.00;;;;;7.96;74.80;100414.84;5090514;28;8848;-79
2020/12/13 05:59:17;;;;;;;;;18.67;17.33;;;;;8.25;73.79;100413.78;5090517;28;9567;-79
2020/12/13 06:01:47;;;;;;;;;21.00;18.00;;;;;8.15;74.49;100428.28;5089396;28;8925;-79
2020/12/13 06:04:16;;;;;;;;;18.67;18.67;;;;;8.12;74.22;100432.56;5089753;28;8836;-82
2020/12/13 06:06:44;;;;;;;;;22.67;16.00;;;;;8.07;74.40;100434.19;5086314;28;8840;-80
2020/12/13 06:09:11;;;;;;;;;28.67;21.33;;;;;8.21;73.60;100432.81;5086190;28;8848;-79
2020/12/13 06:11:48;;;;;;;;;18.67;16.67;;;;;8.04;74.49;100439.38;5090064;28;8852;-69
2020/12/13 06:14:16;;;;;;;;;19.00;15.00;;;;;7.87;75.18;100443.34;5087295;28;8856;-77
2020/12/13 06:16:43;;;;;;;;;18.00;17.00;;;;;7.94;74.49;100442.63;5090458;28;8922;-81
2020/12/13 06:19:13;;;;;;;;;17.00;17.00;;;;;8.13;73.86;100455.19;5090524;28;8876;-82
2020/12/13 06:21:42;;;;;;;;;20.67;19.33;;;;;7.91;74.62;100463.41;5086710;28;9546;-83
2020/12/13 06:24:09;;;;;;;;;22.00;17.67;;;;;7.90;74.90;100456.44;5087937;28;8852;-83
2020/12/13 06:26:36;;;;;;;;;21.00;21.00;;;;;8.08;74.63;100472.47;5087954;28;8856;-81
2020/12/13 06:29:04;;;;;;;;;24.33;18.67;;;;;7.56;75.09;100459.13;5090978;28;8836;-88
2020/12/13 06:31:32;;;;;;;;;22.33;17.67;;;;;7.63;75.01;100481.88;5088098;28;8923;-87
2020/12/13 06:33:58;;;;;;;;;21.67;18.33;;;;;8.09;73.10;100474.25;5087821;28;8840;-87
2020/12/13 06:36:25;;;;;;;;;18.00;17.67;;;;;7.86;73.23;100485.88;5089956;28;8855;-85
2020/12/13 06:38:54;;;;;;;;;21.33;20.00;;;;;8.11;73.06;100473.44;5088720;28;8848;-85
2020/12/13 06:41:25;;;;;;;;;17.67;17.67;;;;;7.79;73.51;100483.97;5091921;28;8936;-86
2020/12/13 06:43:59;;;;;;;;;24.00;18.67;;;;;7.89;74.21;100497.25;5092791;28;8816;-80
2020/12/13 06:46:27;;;;;;;;;18.00;16.33;;;;;7.97;72.73;100511.34;5093839;28;8840;-84
2020/12/13 06:48:54;;;;;;;;;9.67;8.00;;;;;7.84;74.07;100503.22;5093860;28;8856;-84
2020/12/13 06:51:26;;;;;;;;;23.33;20.00;;;;;7.98;72.97;100507.03;5093602;28;8853;-83
2020/12/13 06:53:54;;;;;;;;;14.00;13.00;;;;;8.16;71.15;100497.00;5094187;28;8836;-84
2020/12/13 06:56:22;;;;;;;;;24.00;18.00;;;;;8.41;70.38;100525.41;5093181;28;8837;-83
2020/12/13 06:58:55;;;;;;;;;20.67;18.00;;;;;8.26;70.73;100525.06;5093366;28;8856;-83
2020/12/13 07:01:26;;;;;;;;;18.00;17.00;;;;;8.37;70.99;100523.56;5090918;28;8836;-83
2020/12/13 07:03:53;;;;;;;;;23.33;16.67;;;;;8.52;70.77;100529.13;5092813;28;8836;-83
2020/12/13 07:06:22;;;;;;;;;23.00;21.67;;;;;10.31;65.66;100520.94;5092872;28;8844;-86
2020/12/13 07:08:53;;;;;;;;;21.00;18.00;;;;;12.66;57.44;100518.69;5094572;28;8848;-81
2020/12/13 07:11:23;;;;;;;;;15.00;14.00;;;;;13.99;53.18;100516.31;5092378;28;8840;-80
2020/12/13 07:13:50;;;;;;;;;17.00;16.33;;;;;14.52;51.40;100525.00;5091496;28;8844;-84
2020/12/13 07:19:09;;;;;;;;;18.00;14.00;;;;;11.94;57.85;100534.03;5086148;28;8907;-77
2020/12/13 07:21:36;;;;;;;;;19.33;16.33;;;;;11.51;59.27;100542.41;5088661;28;8917;-78
2020/12/13 07:24:04;;;;;;;;;17.33;16.33;;;;;12.46;56.39;100531.75;5091633;28;8881;-84
2020/12/13 07:26:32;;;;;;;;;18.67;15.33;;;;;13.58;53.31;100527.72;5090093;28;8836;-79
2020/12/13 07:29:00;;;;;;;;;20.33;19.00;;;;;15.04;50.34;100536.22;5092825;28;8852;-79
2020/12/13 07:31:35;;;;;;;;;23.00;22.00;;;;;16.66;45.78;100535.72;5092583;28;8856;-80
2020/12/13 07:34:02;;;;;;;;;19.33;16.00;;;;;16.75;44.93;100540.03;5088348;28;8886;-79
2020/12/13 07:36:28;;;;;;;;;21.33;21.33;;;;;13.85;51.15;100548.75;5088068;28;8851;-76
2020/12/13 07:38:55;;;;;;;;;22.33;21.00;;;;;12.92;53.87;100559.09;5092282;28;8836;-72
2020/12/13 07:41:22;;;;;;;;;25.67;22.00;;;;;11.55;57.62;100565.16;5092032;28;9660;-72
2020/12/13 07:43:54;;;;;;;;;23.33;18.00;;;;;11.04;59.83;100554.13;5092456;28;8878;-69
2020/12/13 07:46:21;;;;;;;;;10.00;8.33;;;;;10.41;61.71;100569.06;5092394;28;8832;-72
2020/12/13 07:48:59;;;;;;;;;20.00;16.67;;;;;10.14;63.79;100574.78;5091714;28;8852;-72
2020/12/13 07:51:26;;;;;;;;;19.33;19.00;;;;;9.88;64.87;100575.19;5092359;28;8836;-71
2020/12/13 07:53:52;;;;;;;;;24.33;24.33;;;;;9.79;65.32;100575.03;5092086;28;8917;-76
2020/12/13 07:56:25;;;;;;;;;27.33;26.00;;;;;9.75;65.87;100586.28;5092014;28;8855;-79
2020/12/13 07:58:51;;;;;;;;;23.00;20.33;;;;;9.29;67.68;100576.75;5051477;28;11439;-75
2020/12/13 08:01:18;;;;;;;;;19.67;19.67;;;;;8.99;68.82;100581.44;4673925;28;9486129;-74
2020/12/13 08:03:46;;;;;;;;;29.33;25.67;;;;;9.26;68.68;100576.72;5082858;28;8915;-72
2020/12/13 08:07:36;;;;;;;;;28.50;27.75;;;;;8.96;69.46;100585.72;5103228;27;13487;-69
2020/12/13 08:10:04;;;;;;;;;18.00;15.00;;;;;8.82;70.36;100592.38;5086536;28;8935;-70
2020/12/13 08:12:32;;;;;;;;;17.33;16.33;;;;;8.65;70.70;100580.72;5087689;28;8847;-73
2020/12/13 08:14:59;;;;;;;;;23.00;21.00;;;;;8.78;71.15;100595.75;5087143;28;8965;-71
2020/12/13 08:17:25;;;;;;;;;22.33;21.33;;;;;8.74;71.58;100604.41;5087285;28;8916;-72
2020/12/13 08:19:54;;;;;;;;;22.00;19.00;;;;;8.72;71.28;100590.41;5086979;28;8842;-75
2020/12/13 08:22:23;;;;;;;;;21.00;19.00;;;;;8.96;71.33;100604.00;5087143;28;9555;-77
2020/12/13 08:24:55;;;;;;;;;31.00;23.00;;;;;9.17;70.42;100591.34;5046797;28;10934;-76
2020/12/13 08:27:22;;;;;;;;;22.67;22.67;;;;;9.35;70.53;100607.38;5040647;28;8838;-73
2020/12/13 08:29:49;;;;;;;;;22.33;22.33;;;;;9.52;69.84;100616.41;5035768;28;10935;-70
2020/12/13 08:32:16;;;;;;;;;26.00;26.00;;;;;9.20;70.94;100601.84;4998928;28;11194;-71
2020/12/13 08:34:43;;;;;;;;;25.33;24.00;;;;;9.20;70.93;100609.69;5065380;28;8934;-70
2020/12/13 08:37:09;;;;;;;;;28.67;23.00;;;;;9.31;71.31;100619.50;5035663;28;8872;-70
2020/12/13 08:39:37;;;;;;;;;33.67;28.67;;;;;9.21;71.65;100624.50;5043951;28;9024;-70
2020/12/13 08:42:07;;;;;;;;;28.33;26.67;;;;;9.18;71.97;100629.69;5040687;28;8844;-71
2020/12/13 08:44:35;;;;;;;;;36.67;30.67;;;;;9.30;70.51;100632.53;5043549;28;8830;-71
2020/12/13 08:47:03;;;;;;;;;48.00;40.75;;;;;9.40;70.98;100642.31;5042800;28;9529;-72
2020/12/13 08:49:33;;;;;;;;;53.00;43.25;;;;;9.28;71.72;100642.09;5039886;28;8927;-71
2020/12/13 08:52:17;;;;;;;;;44.25;38.75;;;;;9.59;71.20;100641.78;5040934;28;8949;-74
2020/12/13 08:54:48;;;;;;;;;40.75;39.00;;;;;9.49;71.56;100632.03;5034697;28;8865;-72
2020/12/13 08:57:26;;;;;;;;;43.33;39.67;;;;;9.78;69.86;100630.81;5025470;28;11194;-74
2020/12/13 09:00:07;;;;;;;;;39.33;35.33;;;;;10.01;68.94;100650.38;5060730;28;8833;-73
2020/12/13 09:02:33;;;;;;;;;39.00;38.33;;;;;10.15;68.99;100651.53;5041843;28;8906;-75
2020/12/13 09:05:04;;;;;;;;;35.00;32.67;;;;;10.15;68.27;100622.75;5042025;28;8867;-73
2020/12/13 09:07:32;;;;;;;;;33.33;31.00;;;;;10.36;67.92;100654.50;5035771;28;8828;-73
2020/12/13 09:10:11;;;;;;;;;29.33;26.00;;;;;10.40;67.93;100664.13;5037398;28;8927;-70
2020/12/13 09:12:40;;;;;;;;;36.00;30.67;;;;;10.43;68.05;100664.19;5038135;28;8874;-71
2020/12/13 09:15:12;;;;;;;;;31.67;29.33;;;;;10.54;67.42;100670.47;5037972;28;8853;-70
2020/12/13 09:17:39;;;;;;;;;31.00;28.00;;;;;10.59;67.52;100668.81;5032075;28;8915;-72
2020/12/13 09:20:06;;;;;;;;;22.67;22.00;;;;;10.41;67.90;100668.53;5021043;28;8860;-74
2020/12/13 09:22:33;;;;;;;;;30.33;29.00;;;;;10.54;67.74;100670.47;5027069;28;8930;-72
2020/12/13 09:24:59;;;;;;;;;29.67;27.67;;;;;10.49;67.90;100666.91;5023514;28;8953;-73
2020/12/13 09:27:27;;;;;;;;;28.00;25.33;;;;;10.60;67.43;100675.78;5022249;28;8845;-73
2020/12/13 09:29:56;;;;;;;;;20.00;18.67;;;;;10.60;67.24;100670.56;5023085;28;8852;-74
2020/12/13 09:32:22;;;;;;;;;26.00;23.00;;;;;10.76;66.16;100683.00;5023548;28;8838;-75
2020/12/13 09:34:49;;;;;;;;;24.00;23.67;;;;;10.73;66.63;100683.84;5023072;28;8848;-78
2020/12/13 09:37:17;;;;;;;;;24.00;23.00;;;;;10.80;66.73;100695.31;5027975;28;8846;-79
2020/12/13 09:39:44;;;;;;;;;24.33;22.33;;;;;10.73;67.32;100672.53;5022343;28;8848;-76
2020/12/13 09:42:11;;;;;;;;;19.00;19.00;;;;;10.77;67.24;100669.06;5024344;28;8818;-76
2020/12/13 09:44:37;;;;;;;;;27.00;24.67;;;;;10.74;67.74;100687.38;5024510;28;8931;-75
2020/12/13 09:47:05;;;;;;;;;23.67;22.33;;;;;10.94;67.16;100698.97;5020513;28;8840;-76
2020/12/13 09:49:32;;;;;;;;;30.33;24.00;;;;;10.84;67.44;100691.88;5023654;28;9630;-75
2020/12/13 09:51:58;;;;;;;;;29.00;27.00;;;;;10.82;67.56;100693.56;5024265;28;8946;-75
2020/12/13 09:54:25;;;;;;;;;27.33;24.00;;;;;10.97;67.13;100704.28;5022250;28;8841;-76
2020/12/13 09:56:52;;;;;;;;;25.33;23.67;;;;;10.92;66.74;100687.63;5022999;28;8903;-76
2020/12/13 09:59:18;;;;;;;;;33.33;28.33;;;;;11.02;67.65;100697.38;5023007;28;8849;-77
2020/12/13 10:01:45;;;;;;;;;27.00;24.33;;;;;10.34;70.10;100703.31;5020748;28;8876;-74
2020/12/13 10:04:12;;;;;;;;;31.67;28.00;;;;;10.83;68.27;100685.75;5024141;28;8943;-76
2020/12/13 10:09:22;;;;;;;;;22.33;22.00;;;;;11.15;67.20;100694.03;5024072;28;8837;-73
2020/12/13 10:11:48;;;;;;;;;32.33;29.33;;;;;11.22;67.03;100695.91;5017898;28;8867;-80
2020/12/13 10:14:15;;;;;;;;;24.33;21.67;;;;;10.94;68.11;100709.47;5018519;28;8857;-72
2020/12/13 10:16:43;;;;;;;;;27.33;23.00;;;;;11.27;66.63;100694.22;5022109;28;8826;-73
2020/12/13 10:19:10;;;;;;;;;35.67;26.00;;;;;11.41;66.02;100703.09;5023986;28;8911;-74
2020/12/13 10:21:37;;;;;;;;;28.33;23.00;;;;;11.51;66.30;100715.47;5019701;28;8860;-74
2020/12/13 10:24:05;;;;;;;;;28.33;24.00;;;;;11.63;65.14;100705.16;5023185;28;8846;-73
2020/12/13 10:26:34;;;;;;;;;24.33;24.00;;;;;11.61;65.64;100709.50;5021382;28;8857;-73
2020/12/13 10:29:00;;;;;;;;;23.67;22.67;;;;;11.56;65.97;100708.53;5021257;28;8883;-73
2020/12/13 10:31:28;;;;;;;;;25.00;23.33;;;;;11.60;65.25;100694.63;5019945;28;9690;-73
2020/12/13 10:33:55;;;;;;;;;23.33;22.33;;;;;11.66;65.77;100697.31;5021718;28;8860;-72
2020/12/13 10:36:21;;;;;;;;;30.67;28.00;;;;;11.69;65.95;100692.09;5025081;28;8850;-71
2020/12/13 10:38:51;;;;;;;;;32.67;28.00;;;;;11.86;65.70;100698.44;5019753;28;9705;-71
2020/12/13 10:41:18;;;;;;;;;19.67;19.67;;;;;11.92;65.60;100703.72;5022356;28;8853;-71
2020/12/13 10:43:46;;;;;;;;;29.00;21.67;;;;;11.89;64.14;100691.47;5019413;28;8840;-72
2020/12/13 10:46:13;;;;;;;;;18.33;16.00;;;;;11.93;64.68;100684.50;5019481;28;8848;-74
2020/12/13 10:48:39;;;;;;;;;17.00;16.00;;;;;12.00;63.63;100691.53;5022384;28;8915;-75
2020/12/13 10:51:05;;;;;;;;;20.67;20.00;;;;;12.08;63.19;100689.88;5019696;28;8852;-74
2020/12/13 10:53:32;;;;;;;;;19.67;17.67;;;;;12.09;63.40;100686.41;5022121;28;8844;-73
2020/12/13 10:55:59;;;;;;;;;19.67;19.00;;;;;12.22;63.16;100688.25;5020472;28;8842;-69
2020/12/13 10:58:25;;;;;;;;;22.33;15.67;;;;;13.21;60.61;100678.44;5020381;28;8929;-71
2020/12/13 11:00:51;;;;;;;;;20.00;17.67;;;;;16.92;50.63;100675.59;5021088;28;8842;-71
2020/12/13 11:03:18;;;;;;;;;16.67;16.67;;;;;19.58;43.86;100664.31;5020045;28;8909;-73
2020/12/13 11:05:45;;;;;;;;;17.33;15.67;;;;;21.14;40.60;100660.44;5021630;28;11590;-73
2020/12/13 11:08:12;;;;;;;;;22.67;20.00;;;;;22.26;38.03;100648.94;5018803;28;11583;-72
2020/12/13 11:10:38;;;;;;;;;16.00;16.00;;;;;22.57;37.34;100659.50;5020636;28;11582;-73
2020/12/13 11:13:08;;;;;;;;;14.50;12.75;;;;;22.83;36.33;100656.81;5018871;28;11593;-72
2020/12/13 11:15:34;;;;;;;;;18.50;17.00;;;;;20.43;40.24;100658.78;5021216;28;11581;-86
2020/12/13 11:18:00;;;;;;;;;15.00;15.00;;;;;21.66;38.54;100649.97;5019578;28;11531;-73
2020/12/13 11:20:26;;;;;;;;;12.50;10.00;;;;;22.47;36.48;100637.59;5020092;28;11665;-70
2020/12/13 11:22:52;;;;;;;;;15.00;14.00;;;;;21.37;38.83;100653.53;5020695;28;11543;-65
2020/12/13 11:25:19;;;;;;;;;14.25;12.75;;;;;21.04;39.93;100654.47;5018817;28;11576;-74
2020/12/13 11:30:00;;;;;;;;;10.00;9.25;;;;;21.17;38.94;100639.00;5167988;27;13346;-73
2020/12/13 11:32:27;;;;;;;;;12.00;11.00;;;;;21.49;38.05;100630.97;5156014;27;11470;-72
2020/12/13 11:34:53;;;;;;;;;11.25;11.25;;;;;21.33;38.57;100630.56;5158389;27;11512;-73
2020/12/13 11:37:20;;;;;;;;;13.00;12.00;;;;;21.03;38.99;100630.56;5160290;27;11514;-73